createdAt,value
2019-04-12T00:02:36.794Z,-2.70
2019-04-12T00:05:06.671Z,-2.70
2019-04-12T00:07:35.208Z,-2.80
2019-04-12T00:10:04.210Z,-2.90
2019-04-12T00:12:32.717Z,-2.80
2019-04-12T00:15:01.221Z,-2.80
2019-04-12T00:17:29.730Z,-2.90
2019-04-12T00:19:58.255Z,-2.90
2019-04-12T00:22:26.709Z,-2.90
2019-04-12T00:24:55.236Z,-2.90
2019-04-12T00:27:23.683Z,-3.00
2019-04-12T00:29:52.142Z,-2.80
2019-04-12T00:32:21.519Z,-2.80
2019-04-12T00:34:53.167Z,-2.60
2019-04-12T00:37:24.102Z,-2.60
2019-04-12T00:39:50.958Z,-2.60
2019-04-12T00:42:19.393Z,-2.40
2019-04-12T00:44:48.033Z,-2.40
2019-04-12T00:47:23.931Z,-2.30
2019-04-12T00:49:52.623Z,-2.30
2019-04-12T00:52:21.067Z,-2.10
2019-04-12T00:54:50.390Z,-2.10
2019-04-12T00:57:19.643Z,-2.10
2019-04-12T00:59:48.102Z,-1.90
2019-04-12T01:02:21.192Z,-1.90
2019-04-12T01:04:51.309Z,-1.80
2019-04-12T01:07:20.637Z,-1.80
2019-04-12T01:09:53.037Z,-1.70
2019-04-12T01:12:19.454Z,-1.50
2019-04-12T01:14:47.883Z,-1.30
2019-04-12T01:17:16.347Z,-1.30
2019-04-12T01:19:44.937Z,-1.20
2019-04-12T01:22:15.350Z,-1.10
2019-04-12T01:24:43.793Z,-1.10
2019-04-12T01:27:12.283Z,-0.90
2019-04-12T01:29:40.731Z,-0.80
2019-04-12T01:34:34.431Z,-0.80
2019-04-12T01:37:02.900Z,-0.80
2019-04-12T01:39:31.363Z,-0.80
2019-04-12T01:41:59.825Z,-0.70
2019-04-12T01:44:28.271Z,-0.50
2019-04-12T01:46:56.727Z,-0.50
2019-04-12T01:49:25.203Z,-0.50
2019-04-12T01:51:53.636Z,-0.50
2019-04-12T01:54:22.090Z,-0.50
2019-04-12T01:56:50.589Z,-0.40
2019-04-12T01:59:19.063Z,-0.30
2019-04-12T02:01:47.524Z,-0.30
2019-04-12T02:04:15.977Z,-0.30
2019-04-12T02:06:44.435Z,-0.30
2019-04-12T02:09:12.880Z,-0.30
2019-04-12T02:11:41.413Z,-0.20
2019-04-12T02:14:10.412Z,-0.20
2019-04-12T02:16:38.871Z,-0.30
2019-04-12T02:19:07.325Z,-0.30
2019-04-12T02:21:35.773Z,-0.30
2019-04-12T02:24:04.220Z,-0.20
2019-04-12T02:26:32.696Z,-0.30
2019-04-12T02:29:01.148Z,-0.30
2019-04-12T02:31:40.272Z,-0.20
2019-04-12T02:34:08.712Z,-0.20
2019-04-12T02:36:37.154Z,-0.20
2019-04-12T02:39:07.449Z,-0.20
2019-04-12T02:41:37.123Z,-0.20
2019-04-12T02:44:06.446Z,-0.20
2019-04-12T02:46:40.319Z,-0.20
2019-04-12T02:49:11.556Z,-0.20
2019-04-12T02:51:43.737Z,-0.30
2019-04-12T02:54:16.059Z,-0.30
2019-04-12T02:56:47.441Z,-0.20
2019-04-12T02:59:33.861Z,-0.20
2019-04-12T03:02:02.728Z,-0.20
2019-04-12T03:04:31.315Z,-0.20
2019-04-12T03:07:00.292Z,-0.30
2019-04-12T03:09:31.165Z,-0.40
2019-04-12T03:12:02.100Z,-0.40
2019-04-12T03:14:33.485Z,-0.40
2019-04-12T03:17:02.466Z,-0.30
2019-04-12T03:19:31.815Z,-0.40
2019-04-12T03:22:00.688Z,-0.40
2019-04-12T03:24:29.471Z,-0.30
2019-04-12T03:26:58.087Z,-0.30
2019-04-12T03:29:26.759Z,-0.30
2019-04-12T03:31:55.635Z,-0.30
2019-04-12T03:34:24.093Z,-0.40
2019-04-12T03:36:52.786Z,-0.40
2019-04-12T03:39:21.300Z,-0.30
2019-04-12T03:41:50.370Z,-0.40
2019-04-12T03:44:19.350Z,-0.50
2019-04-12T03:46:48.162Z,-0.40
2019-04-12T03:49:17.138Z,-0.40
2019-04-12T03:51:45.752Z,-0.40
2019-04-12T03:54:14.260Z,-0.40
2019-04-12T03:56:42.729Z,-0.40
2019-04-12T03:59:20.937Z,-0.40
2019-04-12T04:01:55.719Z,-0.40
2019-04-12T04:04:24.343Z,-0.30
2019-04-12T04:06:53.012Z,-0.40
2019-04-12T04:09:21.477Z,-0.40
2019-04-12T04:11:50.168Z,-0.40
2019-04-12T04:14:20.205Z,-0.40
2019-04-12T04:16:56.870Z,-0.40
2019-04-12T04:19:27.050Z,-0.50
2019-04-12T04:21:56.512Z,-0.40
2019-04-12T04:24:35.394Z,-0.40
2019-04-12T04:27:05.742Z,-0.30
2019-04-12T04:29:36.552Z,-0.40
2019-04-12T04:32:23.472Z,-0.40
2019-04-12T04:34:52.537Z,-0.50
2019-04-12T04:37:21.644Z,-0.50
2019-04-12T04:39:50.462Z,-0.40
2019-04-12T04:42:19.122Z,-0.50
2019-04-12T04:44:47.916Z,-0.40
2019-04-12T04:47:16.940Z,-0.40
2019-04-12T04:49:45.550Z,-0.40
2019-04-12T04:52:16.480Z,-0.50
2019-04-12T04:54:44.713Z,-0.50
2019-04-12T04:57:13.338Z,-0.50
2019-04-12T04:59:42.122Z,-0.50
2019-04-12T05:02:10.985Z,-0.50
2019-04-12T05:04:39.532Z,-0.50
2019-04-12T05:07:08.133Z,-0.40
2019-04-12T05:09:36.580Z,-0.40
2019-04-12T05:12:05.407Z,-0.50
2019-04-12T05:14:33.848Z,-0.40
2019-04-12T05:17:02.476Z,-0.50
2019-04-12T05:19:31.099Z,-0.50
2019-04-12T05:22:19.432Z,-0.50
2019-04-12T05:24:47.930Z,-0.50
2019-04-12T05:27:16.451Z,-0.50
2019-04-12T05:29:44.961Z,-0.50
2019-04-12T05:32:13.411Z,-0.50
2019-04-12T05:34:42.014Z,-0.50
2019-04-12T05:37:10.831Z,-0.40
2019-04-12T05:39:39.360Z,-0.40
2019-04-12T05:42:07.954Z,-0.40
2019-04-12T05:44:36.390Z,-0.50
2019-04-12T05:47:12.230Z,-0.50
2019-04-12T05:49:43.318Z,-0.40
2019-04-12T05:52:11.854Z,-0.40
2019-04-12T05:54:40.317Z,-0.40
2019-04-12T05:57:08.825Z,-0.40
2019-04-12T05:59:41.491Z,-0.40
2019-04-12T06:02:15.950Z,-0.40
2019-04-12T06:04:44.484Z,-0.40
2019-04-12T06:07:13.022Z,-0.30
2019-04-12T06:09:41.527Z,-0.40
2019-04-12T06:12:10.001Z,-0.40
2019-04-12T06:14:38.514Z,-0.40
2019-04-12T06:17:07.813Z,-0.40
2019-04-12T06:19:36.835Z,-0.40
2019-04-12T06:22:06.918Z,-0.50
2019-04-12T06:24:35.399Z,-0.50
2019-04-12T06:27:10.215Z,-0.40
2019-04-12T06:29:35.723Z,-0.40
2019-04-12T06:32:04.246Z,-0.50
2019-04-12T06:34:32.706Z,-0.40
2019-04-12T06:37:01.169Z,-0.40
2019-04-12T06:39:29.646Z,-0.40
2019-04-12T06:41:58.074Z,-0.50
2019-04-12T06:44:26.560Z,-0.40
2019-04-12T06:46:55.315Z,-0.30
2019-04-12T06:49:23.781Z,-0.30
2019-04-12T06:51:52.287Z,-0.30
2019-04-12T06:54:20.752Z,-0.40
2019-04-12T06:56:53.561Z,-0.30
2019-04-12T06:59:22.032Z,-0.40
2019-04-12T07:01:52.196Z,-0.40
2019-04-12T07:04:29.367Z,-0.40
2019-04-12T07:07:01.429Z,-0.40
2019-04-12T07:09:30.476Z,-0.30
2019-04-12T07:11:59.011Z,-0.30
2019-04-12T07:14:27.470Z,-0.40
2019-04-12T07:16:55.971Z,-0.40
2019-04-12T07:19:24.427Z,-0.30
2019-04-12T07:21:52.879Z,-0.20
2019-04-12T07:24:21.402Z,-0.10
2019-04-12T07:26:49.925Z,-0.30
2019-04-12T07:29:18.399Z,-0.20
2019-04-12T07:31:46.842Z,-0.20
2019-04-12T07:34:15.286Z,-0.10
2019-04-12T07:36:43.752Z,-0.10
2019-04-12T07:39:12.261Z,-0.10
2019-04-12T07:41:40.722Z,-0.20
2019-04-12T07:44:09.165Z,-0.30
2019-04-12T07:46:37.634Z,-0.20
2019-04-12T07:49:06.147Z,-0.10
2019-04-12T07:51:38.800Z,-0.20
2019-04-12T07:54:08.951Z,-0.20
2019-04-12T07:56:37.425Z,-0.20
2019-04-12T07:59:07.494Z,-0.20
2019-04-12T08:01:46.707Z,-0.20
2019-04-12T08:04:22.859Z,-0.20
2019-04-12T08:06:55.726Z,-0.10
2019-04-12T08:09:24.183Z,0.10
2019-04-12T08:11:52.646Z,0.20
2019-04-12T08:14:21.173Z,0.30
2019-04-12T08:16:49.619Z,0.30
2019-04-12T08:19:18.158Z,0.20
2019-04-12T08:21:46.691Z,0.20
2019-04-12T08:24:15.175Z,0.10
2019-04-12T08:26:43.651Z,0.10
2019-04-12T08:29:12.077Z,0.20
2019-04-12T08:31:40.542Z,0.20
2019-04-12T08:34:09.076Z,0.00
2019-04-12T08:36:37.602Z,-0.10
2019-04-12T08:39:08.345Z,-0.20
2019-04-12T08:41:36.817Z,-0.20
2019-04-12T08:44:05.263Z,-0.30
2019-04-12T08:46:33.733Z,-0.10
2019-04-12T08:49:02.265Z,0.10
2019-04-12T08:51:30.813Z,0.40
2019-04-12T08:53:59.334Z,0.60
2019-04-12T08:56:27.816Z,0.50
2019-04-12T08:58:56.331Z,0.30
2019-04-12T09:01:24.901Z,0.10
2019-04-12T09:03:54.361Z,0.00
2019-04-12T09:06:22.904Z,0.00
2019-04-12T09:09:11.454Z,0.10
2019-04-12T09:11:40.031Z,0.20
2019-04-12T09:14:08.750Z,0.10
2019-04-12T09:16:37.375Z,0.00
2019-04-12T09:19:23.759Z,0.00
2019-04-12T09:21:59.796Z,-0.10
2019-04-12T09:24:35.658Z,0.00
2019-04-12T09:27:04.169Z,-0.20
2019-04-12T09:29:32.676Z,-0.30
2019-04-12T09:32:01.262Z,-0.40
2019-04-12T09:34:29.795Z,-0.60
2019-04-12T09:36:58.318Z,-0.60
2019-04-12T09:39:46.136Z,-0.40
2019-04-12T09:42:14.641Z,0.00
2019-04-12T09:44:43.158Z,0.30
2019-04-12T09:47:11.614Z,0.70
2019-04-12T09:49:40.066Z,1.10
2019-04-12T09:52:08.516Z,1.10
2019-04-12T09:54:36.959Z,1.20
2019-04-12T09:57:05.403Z,1.10
2019-04-12T09:59:33.932Z,1.00
2019-04-12T10:02:13.236Z,0.90
2019-04-12T10:04:32.554Z,1.00
2019-04-12T10:07:01.028Z,1.10
2019-04-12T10:09:29.617Z,1.20
2019-04-12T10:11:58.134Z,1.30
2019-04-12T10:14:26.583Z,1.40
2019-04-12T10:16:55.022Z,1.20
2019-04-12T10:19:23.471Z,1.10
2019-04-12T10:21:51.932Z,1.20
2019-04-12T10:24:20.495Z,1.30
2019-04-12T10:26:48.990Z,1.50
2019-04-12T10:29:17.495Z,1.80
2019-04-12T10:31:45.940Z,1.70
2019-04-12T10:34:14.385Z,1.50
2019-04-12T10:36:50.656Z,1.20
2019-04-12T10:39:17.339Z,0.80
2019-04-12T10:41:45.797Z,0.60
2019-04-12T10:44:19.107Z,0.50
2019-04-12T10:46:49.190Z,0.40
2019-04-12T10:49:35.381Z,0.50
2019-04-12T10:52:21.506Z,0.60
2019-04-12T10:55:03.656Z,0.70
2019-04-12T10:57:32.170Z,0.90
2019-04-12T11:00:00.613Z,1.00
2019-04-12T11:02:29.925Z,0.90
2019-04-12T11:04:58.387Z,0.80
2019-04-12T11:07:26.897Z,0.60
2019-04-12T11:09:55.347Z,0.40
2019-04-12T11:12:23.818Z,0.30
2019-04-12T11:14:54.817Z,0.20
2019-04-12T11:17:22.467Z,0.30
2019-04-12T11:19:50.920Z,0.40
2019-04-12T11:22:19.424Z,0.30
2019-04-12T11:24:47.856Z,0.30
2019-04-12T11:27:16.327Z,0.40
2019-04-12T11:29:44.759Z,0.50
2019-04-12T11:32:13.227Z,0.80
2019-04-12T11:34:41.651Z,0.80
2019-04-12T11:37:10.139Z,0.60
2019-04-12T11:39:38.605Z,0.60
2019-04-12T11:42:07.061Z,0.70
2019-04-12T11:44:35.508Z,1.10
2019-04-12T11:47:03.949Z,1.20
2019-04-12T11:49:32.420Z,1.60
2019-04-12T11:52:20.197Z,2.10
2019-04-12T11:54:48.736Z,2.20
2019-04-12T11:57:17.366Z,2.40
2019-04-12T11:59:45.838Z,2.40
2019-04-12T12:02:22.174Z,2.10
2019-04-12T12:04:58.228Z,1.80
2019-04-12T12:07:33.990Z,1.40
2019-04-12T12:10:19.245Z,1.10
2019-04-12T12:12:58.086Z,0.80
2019-04-12T12:15:34.190Z,1.00
2019-04-12T12:18:09.719Z,1.20
2019-04-12T12:20:39.250Z,1.30
2019-04-12T12:23:07.756Z,1.60
2019-04-12T12:25:36.227Z,2.00
2019-04-12T12:28:04.770Z,2.20
2019-04-12T12:30:33.360Z,2.70
2019-04-12T12:33:01.818Z,2.60
2019-04-12T12:35:30.256Z,2.70
2019-04-12T12:37:58.703Z,2.70
2019-04-12T12:40:27.220Z,3.00
2019-04-12T12:42:55.741Z,3.30
2019-04-12T12:45:24.186Z,3.40
2019-04-12T12:47:52.646Z,3.50
2019-04-12T12:50:21.146Z,3.30
2019-04-12T12:52:49.589Z,2.60
2019-04-12T12:55:18.127Z,2.40
2019-04-12T12:57:46.730Z,2.10
2019-04-12T13:00:15.855Z,1.80
2019-04-12T13:02:44.378Z,1.60
2019-04-12T13:05:12.891Z,1.60
2019-04-12T13:07:41.366Z,1.40
2019-04-12T13:10:09.947Z,1.60
2019-04-12T13:12:38.416Z,1.80
2019-04-12T13:15:07.103Z,1.90
2019-04-12T13:17:35.565Z,1.80
2019-04-12T13:20:04.271Z,1.60
2019-04-12T13:22:32.717Z,1.80
2019-04-12T13:25:01.151Z,1.90
2019-04-12T13:27:29.597Z,1.40
2019-04-12T13:30:06.603Z,1.20
2019-04-12T13:32:31.476Z,1.10
2019-04-12T13:35:01.537Z,1.10
2019-04-12T13:37:43.742Z,1.30
2019-04-12T13:40:19.687Z,1.60
2019-04-12T13:42:48.321Z,1.70
2019-04-12T13:45:18.390Z,2.10
2019-04-12T13:47:46.856Z,2.60
2019-04-12T13:50:15.364Z,2.50
2019-04-12T13:52:43.823Z,2.50
2019-04-12T13:55:12.632Z,2.60
2019-04-12T13:57:43.198Z,2.40
2019-04-12T14:00:19.040Z,2.40
2019-04-12T14:02:43.524Z,2.50
2019-04-12T14:05:13.273Z,2.70
2019-04-12T14:07:41.711Z,2.60
2019-04-12T14:10:11.885Z,3.00
2019-04-12T14:12:40.694Z,2.90
2019-04-12T14:15:09.745Z,2.60
2019-04-12T14:17:38.439Z,2.40
2019-04-12T14:20:08.049Z,2.30
2019-04-12T14:22:36.865Z,2.20
2019-04-12T14:25:06.466Z,2.00
2019-04-12T14:27:35.248Z,1.80
2019-04-12T14:30:07.222Z,1.50
2019-04-12T14:32:37.358Z,1.20
2019-04-12T14:35:10.976Z,1.20
2019-04-12T14:37:43.835Z,1.10
2019-04-12T14:40:12.316Z,0.80
2019-04-12T14:42:41.106Z,0.50
2019-04-12T14:45:27.780Z,0.40
2019-04-12T14:48:03.573Z,0.10
2019-04-12T14:50:32.216Z,0.00
2019-04-12T14:53:00.744Z,0.10
2019-04-12T14:55:29.354Z,0.20
2019-04-12T14:57:57.867Z,0.20
2019-04-12T15:00:26.702Z,0.40
2019-04-12T15:02:55.208Z,0.60
2019-04-12T15:05:23.900Z,0.80
2019-04-12T15:07:52.638Z,0.90
2019-04-12T15:10:21.099Z,1.10
2019-04-12T15:12:49.585Z,1.30
2019-04-12T15:15:18.130Z,1.30
2019-04-12T15:17:47.571Z,1.40
2019-04-12T15:20:16.583Z,1.40
2019-04-12T15:22:45.073Z,1.70
2019-04-12T15:25:13.692Z,1.90
2019-04-12T15:27:42.132Z,1.90
2019-04-12T15:30:10.907Z,1.90
2019-04-12T15:32:39.403Z,2.10
2019-04-12T15:35:08.114Z,1.90
2019-04-12T15:37:36.567Z,1.80
2019-04-12T15:40:05.817Z,1.70
2019-04-12T15:42:34.262Z,1.60
2019-04-12T15:45:02.725Z,1.50
2019-04-12T15:47:31.217Z,1.60
2019-04-12T15:49:59.865Z,1.60
2019-04-12T15:52:28.321Z,1.70
2019-04-12T15:54:56.913Z,1.60
2019-04-12T15:57:25.413Z,1.60
2019-04-12T15:59:53.846Z,1.70
2019-04-12T16:02:23.432Z,1.50
2019-04-12T16:04:51.866Z,1.50
2019-04-12T16:07:23.391Z,1.40
2019-04-12T16:09:54.912Z,1.50
2019-04-12T16:12:37.919Z,1.40
2019-04-12T16:15:15.199Z,1.00
2019-04-12T16:18:08.451Z,0.60
2019-04-12T16:20:37.641Z,0.50
2019-04-12T16:23:06.086Z,0.40
2019-04-12T16:25:35.359Z,0.30
2019-04-12T16:28:07.582Z,0.40
2019-04-12T16:30:49.663Z,0.50
2019-04-12T16:33:35.653Z,0.50
2019-04-12T16:36:20.866Z,0.50
2019-04-12T16:38:49.302Z,0.40
2019-04-12T16:41:17.744Z,0.30
2019-04-12T16:43:46.195Z,0.20
2019-04-12T16:46:14.631Z,0.20
2019-04-12T16:48:43.076Z,0.20
2019-04-12T16:51:11.506Z,0.20
2019-04-12T16:53:39.955Z,0.20
2019-04-12T16:56:08.400Z,0.10
2019-04-12T16:58:38.872Z,0.00
2019-04-12T17:01:07.047Z,0.00
2019-04-12T17:03:35.624Z,-0.10
2019-04-12T17:06:04.139Z,-0.10
2019-04-12T17:08:32.604Z,-0.10
2019-04-12T17:11:01.113Z,-0.10
2019-04-12T17:13:29.562Z,-0.10
2019-04-12T17:15:58.091Z,-0.10
2019-04-12T17:18:26.541Z,-0.10
2019-04-12T17:20:55.456Z,-0.10
2019-04-12T17:23:23.971Z,0.00
2019-04-12T17:25:52.427Z,-0.10
2019-04-12T17:28:23.313Z,-0.10
2019-04-12T17:30:51.058Z,0.00
2019-04-12T17:33:19.563Z,-0.10
2019-04-12T17:35:48.051Z,-0.20
2019-04-12T17:38:16.567Z,-0.20
2019-04-12T17:40:44.999Z,-0.20
2019-04-12T17:43:13.459Z,-0.30
2019-04-12T17:45:41.895Z,-0.20
2019-04-12T17:48:11.979Z,-0.30
2019-04-12T17:50:42.206Z,-0.30
2019-04-12T17:53:30.142Z,-0.30
2019-04-12T17:59:27.360Z,-0.30
2019-04-12T18:02:02.911Z,-0.30
2019-04-12T18:04:31.362Z,-0.30
2019-04-12T18:06:59.817Z,-0.40
2019-04-12T18:09:28.268Z,-0.40
2019-04-12T18:11:56.723Z,-0.50
2019-04-12T18:14:25.180Z,-0.50
2019-04-12T18:16:53.683Z,-0.60
2019-04-12T18:19:22.217Z,-0.70
2019-04-12T18:21:50.752Z,-0.70
2019-04-12T18:24:19.426Z,-0.70
2019-04-12T18:26:47.995Z,-0.70
2019-04-12T18:29:16.666Z,-0.70
2019-04-12T18:31:45.415Z,-0.70
2019-04-12T18:34:14.110Z,-0.70
2019-04-12T18:36:42.622Z,-0.70
2019-04-12T18:39:12.129Z,-0.70
2019-04-12T18:41:40.640Z,-0.70
2019-04-12T18:44:09.105Z,-0.70
2019-04-12T18:46:37.624Z,-0.70
2019-04-12T18:49:06.069Z,-0.70
2019-04-12T18:51:34.526Z,-0.70
2019-04-12T18:54:03.008Z,-0.60
2019-04-12T18:56:31.512Z,-0.60
2019-04-12T18:58:59.974Z,-0.60
2019-04-12T19:01:28.420Z,-0.60
2019-04-12T19:03:57.778Z,-0.50
2019-04-12T19:06:26.302Z,-0.50
2019-04-12T19:08:55.648Z,-0.50
2019-04-12T19:11:24.103Z,-0.50
2019-04-12T19:13:52.549Z,-0.50
2019-04-12T19:16:21.186Z,-0.60
2019-04-12T19:18:49.687Z,-0.70
2019-04-12T19:21:18.218Z,-0.70
2019-04-12T19:23:46.702Z,-0.70
2019-04-12T19:26:15.160Z,-0.80
2019-04-12T19:28:43.611Z,-0.90
2019-04-12T19:31:13.711Z,-0.90
2019-04-12T19:33:55.874Z,-0.90
2019-04-12T19:36:43.833Z,-0.90
2019-04-12T19:39:30.207Z,-0.90
2019-04-12T19:42:00.445Z,-1.00
2019-04-12T19:44:29.058Z,-1.00
2019-04-12T19:46:57.531Z,-1.00
2019-04-12T19:49:26.086Z,-1.00
2019-04-12T19:51:54.662Z,-1.10
2019-04-12T19:54:23.220Z,-1.10
2019-04-12T19:56:51.763Z,-1.10
2019-04-12T19:59:20.258Z,-1.10
2019-04-12T20:01:48.780Z,-1.10
2019-04-12T20:04:17.246Z,-1.20
2019-04-12T20:06:45.736Z,-1.20
2019-04-12T20:09:14.321Z,-1.20
2019-04-12T20:11:42.923Z,-1.20
2019-04-12T20:14:11.388Z,-1.30
2019-04-12T20:16:39.930Z,-1.20
2019-04-12T20:19:08.407Z,-1.30
2019-04-12T20:21:36.964Z,-1.30
2019-04-12T20:24:05.408Z,-1.30
2019-04-12T20:26:34.048Z,-1.30
2019-04-12T20:29:03.063Z,-1.30
2019-04-12T20:31:31.534Z,-1.30
2019-04-12T20:33:59.991Z,-1.30
2019-04-12T20:36:28.480Z,-1.30
2019-04-12T20:38:56.956Z,-1.30
2019-04-12T20:41:25.408Z,-1.30
2019-04-12T20:43:53.876Z,-1.30
2019-04-12T20:46:22.336Z,-1.30
2019-04-12T20:48:50.815Z,-1.40
2019-04-12T20:51:19.334Z,-1.30
2019-04-12T20:53:47.805Z,-1.30
2019-04-12T20:56:16.273Z,-1.30
2019-04-12T20:58:44.739Z,-1.30
2019-04-12T21:01:13.199Z,-1.30
2019-04-12T21:03:41.645Z,-1.20
2019-04-12T21:06:10.154Z,-1.30
2019-04-12T21:08:38.651Z,-1.30
2019-04-12T21:11:07.089Z,-1.30
2019-04-12T21:13:35.563Z,-1.20
2019-04-12T21:16:04.007Z,-1.20
2019-04-12T21:18:32.470Z,-1.20
2019-04-12T21:21:00.926Z,-1.20
2019-04-12T21:23:29.455Z,-1.20
2019-04-12T21:25:57.901Z,-1.20
2019-04-12T21:28:26.370Z,-1.20
2019-04-12T21:30:54.835Z,-1.10
2019-04-12T21:33:28.741Z,-1.10
2019-04-12T21:35:53.625Z,-1.20
2019-04-12T21:38:22.091Z,-1.30
2019-04-12T21:40:50.554Z,-1.30
2019-04-12T21:43:19.015Z,-1.30
2019-04-12T21:45:47.465Z,-1.30
2019-04-12T21:48:15.939Z,-1.20
2019-04-12T21:50:44.387Z,-1.30
2019-04-12T21:53:12.870Z,-1.20
2019-04-12T21:55:41.312Z,-1.20
2019-04-12T21:58:09.770Z,-1.20
2019-04-12T22:00:49.027Z,-1.20
2019-04-12T22:03:18.220Z,-1.20
2019-04-12T22:05:47.160Z,-1.20
2019-04-12T22:08:15.630Z,-1.20
2019-04-12T22:10:44.078Z,-1.20
2019-04-12T22:13:12.526Z,-1.20
2019-04-12T22:15:41.006Z,-1.20
2019-04-12T22:18:09.485Z,-1.20
2019-04-12T22:20:37.936Z,-1.20
2019-04-12T22:23:06.388Z,-1.20
2019-04-12T22:25:34.851Z,-1.20
2019-04-12T22:28:03.333Z,-1.20
2019-04-12T22:30:31.856Z,-1.20
2019-04-12T22:33:00.431Z,-1.20
2019-04-12T22:35:28.882Z,-1.20
2019-04-12T22:37:57.336Z,-1.20
2019-04-12T22:40:26.558Z,-1.30
2019-04-12T22:42:55.038Z,-1.30
2019-04-12T22:45:23.562Z,-1.40
2019-04-12T22:47:52.030Z,-1.40
2019-04-12T22:50:20.498Z,-1.40
2019-04-12T22:52:48.944Z,-1.40
2019-04-12T22:55:21.879Z,-1.40
2019-04-12T22:57:50.323Z,-1.30
2019-04-12T23:00:19.051Z,-1.30
2019-04-12T23:02:47.494Z,-1.30
2019-04-12T23:05:15.967Z,-1.30
2019-04-12T23:07:44.406Z,-1.30
2019-04-12T23:10:12.922Z,-1.30
2019-04-12T23:12:41.361Z,-1.30
2019-04-12T23:15:11.615Z,-1.30
2019-04-12T23:17:40.095Z,-1.30
2019-04-12T23:20:09.661Z,-1.30
2019-04-12T23:22:38.179Z,-1.30
2019-04-12T23:25:06.714Z,-1.30
2019-04-12T23:27:35.191Z,-1.30
2019-04-12T23:30:05.443Z,-1.30
2019-04-12T23:32:33.903Z,-1.30
2019-04-12T23:35:09.724Z,-1.40
2019-04-12T23:37:45.290Z,-1.40
2019-04-12T23:40:13.825Z,-1.30
2019-04-12T23:42:42.263Z,-1.30
2019-04-12T23:45:12.317Z,-1.30
2019-04-12T23:47:40.781Z,-1.20
2019-04-12T23:50:09.476Z,-1.20
2019-04-12T23:52:38.012Z,-1.30
2019-04-12T23:55:06.824Z,-1.30
2019-04-12T23:57:35.283Z,-1.30
